KHKA/HKA METAR and TAF weather

Enter ICAO airport designator
Station Type Date Time Source
KHKA METAR 2021/01/27 13:53 UTC NOAA

KHKA 271353Z AUTO 05008KT 10SM CLR 03/M01 A3017 RMK AO2 SLP217 T00281011 $


Station Type Date Time Source
KHKA Decoded METAR 2021/01/27 13:53 UTC NOAA

BLYTHEVILLE MUNICIPAL AIRPORT , AR, United States (KHKA) 35-56N 89-50W 78M
Jan 27, 2021 - 08:53 AM EST / 2021.01.27 1353 UTC
Wind: from the NE (050 degrees) at 9 MPH (8 KT):0
Visibility: 10 mile(s):0
Sky conditions: clear
Temperature: 37.0 F (2.8 C)
Dew Point: 30.0 F (-1.1 C)
Relative Humidity: 75%
Pressure (altimeter): 30.17 in. Hg (1021 hPa)
ob: KHKA 271353Z AUTO 05008KT 10SM CLR 03/M01 A3017 RMK AO2 SLP217 T00281011
cycle: 14

Station Type Date Time Source
KHKA TAF UTC NOAA

Error!

Example: see airport list